Time;durP1;ratioP1;P1;durP2;ratioP2;P2;SDS_P1;SDS_P2;PMS_P1;PMS_P2;Temp;Humidity;BMP_temperature;BMP_pressure;BME280_temperature;BME280_humidity;BME280_pressure;Samples;Min_cycle;Max_cycle;Signal;HPM_P1;HPM_P2
2023/11/04 00:02:10;;;;;;;542.10;171.40;;;;;;;;;;5014679;28;20120;-52
2023/11/04 00:04:35;;;;;;;454.58;164.63;;;;;;;;;;5018504;28;20041;-54
2023/11/04 00:07:01;;;;;;;522.80;164.73;;;;;;;;;;5014575;28;20407;-54
2023/11/04 00:09:26;;;;;;;485.70;161.43;;;;;;;;;;5017990;28;20472;-56
2023/11/04 00:11:52;;;;;;;459.63;165.05;;;;;;;;;;5011143;28;20049;-53
2023/11/04 00:14:17;;;;;;;425.52;163.65;;;;;;;;;;5017331;28;20021;-53
2023/11/04 00:16:42;;;;;;;462.17;166.52;;;;;;;;;;5015806;28;20080;-53
2023/11/04 00:19:08;;;;;;;477.25;167.05;;;;;;;;;;5015839;28;20299;-56
2023/11/04 00:21:33;;;;;;;427.00;165.27;;;;;;;;;;5017269;28;20029;-53
2023/11/04 00:23:59;;;;;;;504.83;170.10;;;;;;;;;;5017094;28;20104;-53
2023/11/04 00:26:24;;;;;;;517.50;171.80;;;;;;;;;;5015073;28;20042;-53
2023/11/04 00:28:49;;;;;;;446.27;166.48;;;;;;;;;;5017276;28;20033;-53
2023/11/04 00:31:14;;;;;;;416.15;164.88;;;;;;;;;;5016824;28;20053;-53
2023/11/04 00:33:40;;;;;;;462.75;166.10;;;;;;;;;;5016318;28;20037;-52
2023/11/04 00:36:05;;;;;;;496.40;169.48;;;;;;;;;;5014270;28;20501;-52
2023/11/04 00:38:31;;;;;;;409.25;164.95;;;;;;;;;;5015925;28;20036;-53
2023/11/04 00:40:56;;;;;;;501.30;168.98;;;;;;;;;;5015369;28;20053;-53
2023/11/04 00:43:21;;;;;;;473.92;156.68;;;;;;;;;;5016896;28;20021;-53
2023/11/04 00:45:46;;;;;;;373.77;145.55;;;;;;;;;;5016986;28;20409;-53
2023/11/04 00:48:12;;;;;;;524.65;153.52;;;;;;;;;;5014860;28;20269;-53
2023/11/04 00:50:37;;;;;;;478.65;150.95;;;;;;;;;;5015924;28;20049;-53
2023/11/04 00:53:02;;;;;;;516.38;158.10;;;;;;;;;;5015891;28;20600;-53
2023/11/04 00:55:28;;;;;;;464.15;154.88;;;;;;;;;;5015767;28;20478;-54
2023/11/04 00:57:53;;;;;;;450.40;157.30;;;;;;;;;;5016366;28;20030;-53
2023/11/04 01:00:23;;;;;;;463.88;158.05;;;;;;;;;;5015888;28;20014;-54
2023/11/04 01:02:49;;;;;;;416.98;155.68;;;;;;;;;;5016711;28;20489;-54
2023/11/04 01:05:14;;;;;;;476.23;158.75;;;;;;;;;;5013867;28;20048;-54
2023/11/04 01:07:39;;;;;;;440.67;155.70;;;;;;;;;;5016277;28;20029;-54
2023/11/04 01:10:05;;;;;;;492.52;159.27;;;;;;;;;;5015916;28;20502;-53
2023/11/04 01:12:30;;;;;;;419.63;154.07;;;;;;;;;;5016294;28;20148;-55
2023/11/04 01:14:55;;;;;;;480.95;158.02;;;;;;;;;;5012968;28;20484;-54
2023/11/04 01:17:20;;;;;;;430.67;156.07;;;;;;;;;;5013442;28;20029;-53
2023/11/04 01:19:46;;;;;;;428.02;153.57;;;;;;;;;;5017166;28;20445;-54
2023/11/04 01:22:11;;;;;;;505.95;157.30;;;;;;;;;;5014301;28;20108;-53
2023/11/04 01:24:36;;;;;;;450.93;158.00;;;;;;;;;;5015059;28;20053;-54
2023/11/04 01:27:02;;;;;;;470.08;159.68;;;;;;;;;;5015635;28;20594;-54
2023/11/04 01:29:27;;;;;;;451.50;158.75;;;;;;;;;;5016789;28;20100;-53
2023/11/04 01:31:52;;;;;;;497.23;159.73;;;;;;;;;;5015704;28;20851;-54
2023/11/04 01:34:17;;;;;;;418.08;156.50;;;;;;;;;;5014273;28;20029;-54
2023/11/04 01:36:43;;;;;;;470.98;160.68;;;;;;;;;;5014019;28;20426;-54
2023/11/04 01:39:08;;;;;;;566.53;165.20;;;;;;;;;;5014288;28;20021;-54
2023/11/04 01:41:33;;;;;;;430.85;157.43;;;;;;;;;;5015597;28;20287;-54
2023/11/04 01:43:59;;;;;;;514.10;162.27;;;;;;;;;;5014649;28;20043;-53
2023/11/04 01:46:25;;;;;;;516.33;161.15;;;;;;;;;;5012523;28;20152;-53
2023/11/04 01:48:50;;;;;;;429.55;158.18;;;;;;;;;;5013885;28;20036;-53
2023/11/04 01:51:16;;;;;;;386.95;157.52;;;;;;;;;;5013778;28;20026;-53
2023/11/04 01:53:48;;;;;;;478.33;162.30;;;;;;;;;;5012620;28;20026;-54
2023/11/04 01:56:16;;;;;;;542.13;164.68;;;;;;;;;;5012143;28;20321;-54
2023/11/04 01:58:44;;;;;;;490.20;162.00;;;;;;;;;;5014357;28;20032;-56
2023/11/04 02:01:10;;;;;;;513.58;162.50;;;;;;;;;;5013631;28;20037;-54
2023/11/04 02:03:36;;;;;;;457.17;159.57;;;;;;;;;;5014371;28;20389;-54
2023/11/04 02:06:01;;;;;;;528.28;162.05;;;;;;;;;;5010140;28;20033;-54
2023/11/04 02:08:27;;;;;;;454.08;159.73;;;;;;;;;;5014473;28;20040;-53
2023/11/04 02:10:52;;;;;;;433.70;156.90;;;;;;;;;;5013984;28;20425;-54
2023/11/04 02:13:17;;;;;;;481.65;161.10;;;;;;;;;;5011907;28;20018;-53
2023/11/04 02:15:42;;;;;;;436.27;156.10;;;;;;;;;;5014004;28;20567;-54
2023/11/04 02:18:08;;;;;;;472.83;156.25;;;;;;;;;;5012229;28;20103;-53
2023/11/04 02:20:34;;;;;;;465.63;156.35;;;;;;;;;;5014215;28;20041;-54
2023/11/04 02:22:59;;;;;;;532.88;164.57;;;;;;;;;;5012689;28;20112;-53
2023/11/04 02:25:31;;;;;;;444.33;160.77;;;;;;;;;;5014349;28;20025;-55
2023/11/04 02:27:56;;;;;;;446.50;162.27;;;;;;;;;;5015277;28;20493;-53
2023/11/04 02:30:21;;;;;;;430.10;160.77;;;;;;;;;;5013746;28;20041;-52
2023/11/04 02:32:48;;;;;;;482.75;163.88;;;;;;;;;;5012970;28;20033;-52
2023/11/04 02:35:15;;;;;;;495.75;163.50;;;;;;;;;;5013316;28;20408;-54
2023/11/04 02:37:40;;;;;;;394.70;158.55;;;;;;;;;;5014361;28;20531;-53
2023/11/04 02:40:06;;;;;;;534.28;167.10;;;;;;;;;;5011946;28;20111;-53
2023/11/04 02:42:31;;;;;;;422.58;161.70;;;;;;;;;;5014471;28;20018;-52
2023/11/04 02:44:56;;;;;;;431.75;161.35;;;;;;;;;;5011952;28;20362;-53
2023/11/04 02:47:22;;;;;;;507.75;164.02;;;;;;;;;;5012872;28;20048;-52
2023/11/04 02:49:47;;;;;;;471.83;165.57;;;;;;;;;;5013543;28;20022;-53
2023/11/04 02:52:12;;;;;;;469.27;163.85;;;;;;;;;;5015091;28;20034;-53
2023/11/04 02:54:39;;;;;;;479.48;165.07;;;;;;;;;;5016761;28;20188;-52
2023/11/04 02:57:04;;;;;;;539.08;168.32;;;;;;;;;;5014149;28;20038;-52
2023/11/04 02:59:30;;;;;;;392.50;163.02;;;;;;;;;;5019472;28;20037;-52
2023/11/04 03:01:56;;;;;;;487.73;166.80;;;;;;;;;;5011125;28;20025;-52
2023/11/04 03:04:21;;;;;;;449.92;163.70;;;;;;;;;;5018375;28;20017;-52
2023/11/04 03:06:47;;;;;;;403.63;161.05;;;;;;;;;;5018639;28;20041;-52
2023/11/04 03:09:12;;;;;;;515.65;167.95;;;;;;;;;;5018756;28;20021;-52
2023/11/04 03:11:37;;;;;;;414.73;155.48;;;;;;;;;;5019922;28;20480;-52
2023/11/04 03:14:02;;;;;;;487.63;155.02;;;;;;;;;;5018330;28;20030;-53
2023/11/04 03:16:29;;;;;;;433.75;153.82;;;;;;;;;;5019121;28;20091;-53
2023/11/04 03:18:54;;;;;;;411.48;152.13;;;;;;;;;;5018330;28;20579;-54
2023/11/04 03:21:20;;;;;;;410.20;154.00;;;;;;;;;;5017485;28;20062;-52
2023/11/04 03:23:45;;;;;;;327.50;150.95;;;;;;;;;;5018734;28;20021;-53
2023/11/04 03:26:12;;;;;;;466.92;156.38;;;;;;;;;;5017240;28;20033;-53
2023/11/04 03:28:38;;;;;;;424.63;156.07;;;;;;;;;;5020069;28;20029;-53
2023/11/04 03:31:03;;;;;;;507.40;159.30;;;;;;;;;;5018634;28;20091;-52
2023/11/04 03:33:29;;;;;;;353.77;154.35;;;;;;;;;;5019287;28;20583;-53
2023/11/04 03:35:54;;;;;;;455.60;161.05;;;;;;;;;;5016939;28;20114;-53
2023/11/04 03:38:19;;;;;;;433.45;159.95;;;;;;;;;;5018580;28;20129;-52
2023/11/04 03:40:44;;;;;;;354.20;155.50;;;;;;;;;;5019381;28;20111;-53
2023/11/04 03:43:10;;;;;;;476.17;162.40;;;;;;;;;;5017352;28;20473;-53
2023/11/04 03:45:35;;;;;;;457.92;161.30;;;;;;;;;;5019686;28;20389;-53
2023/11/04 03:48:00;;;;;;;420.95;158.90;;;;;;;;;;5019007;28;20024;-53
2023/11/04 03:50:26;;;;;;;416.23;159.75;;;;;;;;;;5018032;28;20048;-53
2023/11/04 03:52:51;;;;;;;454.58;163.60;;;;;;;;;;5019377;28;20108;-53
2023/11/04 03:55:16;;;;;;;487.67;162.38;;;;;;;;;;5015525;28;20424;-54
2023/11/04 03:57:41;;;;;;;375.58;156.45;;;;;;;;;;5018213;28;20213;-53
2023/11/04 04:00:07;;;;;;;518.22;158.68;;;;;;;;;;5015415;28;20557;-53
2023/11/04 04:02:33;;;;;;;424.92;158.32;;;;;;;;;;5019427;28;20489;-53
2023/11/04 04:04:59;;;;;;;441.75;158.95;;;;;;;;;;5019354;28;20337;-53
2023/11/04 04:07:24;;;;;;;400.27;156.55;;;;;;;;;;5016138;28;20099;-53
2023/11/04 04:09:49;;;;;;;395.93;156.90;;;;;;;;;;5018788;28;20507;-52
2023/11/04 04:12:14;;;;;;;400.73;156.50;;;;;;;;;;5017600;28;20443;-53
2023/11/04 04:14:44;;;;;;;422.02;156.45;;;;;;;;;;5018960;28;20294;-53
2023/11/04 04:17:09;;;;;;;528.15;161.45;;;;;;;;;;5015854;28;20045;-53
2023/11/04 04:19:36;;;;;;;475.40;159.10;;;;;;;;;;5018367;28;20078;-54
2023/11/04 04:22:01;;;;;;;431.20;154.73;;;;;;;;;;5016174;28;20041;-53
2023/11/04 04:24:27;;;;;;;411.27;146.75;;;;;;;;;;5016750;28;20021;-52
2023/11/04 04:26:52;;;;;;;452.90;147.68;;;;;;;;;;5015312;28;20037;-53
2023/11/04 04:29:17;;;;;;;450.63;148.73;;;;;;;;;;5018208;28;20036;-53
2023/11/04 04:31:42;;;;;;;412.92;145.90;;;;;;;;;;5017863;28;20405;-54
2023/11/04 04:34:08;;;;;;;524.60;155.27;;;;;;;;;;5016349;28;20064;-52
2023/11/04 04:36:33;;;;;;;421.83;150.02;;;;;;;;;;5015945;28;20349;-52
2023/11/04 04:38:58;;;;;;;361.20;148.32;;;;;;;;;;5018343;28;20033;-53
2023/11/04 04:41:25;;;;;;;385.85;151.57;;;;;;;;;;5017808;28;20429;-54
2023/11/04 04:43:51;;;;;;;445.17;153.82;;;;;;;;;;5017474;28;20052;-52
2023/11/04 04:46:16;;;;;;;453.30;156.20;;;;;;;;;;5017136;28;20409;-53
2023/11/04 04:48:41;;;;;;;408.73;152.98;;;;;;;;;;5017528;28;20337;-54
2023/11/04 04:51:07;;;;;;;469.88;152.70;;;;;;;;;;5015555;28;20098;-54
2023/11/04 04:53:32;;;;;;;407.90;151.80;;;;;;;;;;5018081;28;20064;-53
2023/11/04 04:55:58;;;;;;;412.88;151.40;;;;;;;;;;5017688;28;20524;-54
2023/11/04 04:58:23;;;;;;;412.02;145.98;;;;;;;;;;5017388;28;20211;-55
2023/11/04 05:00:48;;;;;;;481.33;151.60;;;;;;;;;;5016071;28;20033;-55
2023/11/04 05:03:13;;;;;;;470.60;149.15;;;;;;;;;;5016155;28;20061;-54
2023/11/04 05:05:39;;;;;;;474.75;154.05;;;;;;;;;;5016067;28;20084;-53
2023/11/04 05:08:04;;;;;;;432.07;151.53;;;;;;;;;;5015490;28;20044;-53
2023/11/04 05:10:29;;;;;;;375.40;146.18;;;;;;;;;;5015970;28;20610;-54
2023/11/04 05:12:55;;;;;;;455.50;151.23;;;;;;;;;;5016838;28;20026;-53
2023/11/04 05:15:20;;;;;;;529.55;155.38;;;;;;;;;;5015383;28;20029;-54
2023/11/04 05:17:46;;;;;;;396.95;147.55;;;;;;;;;;5018392;28;20032;-54
2023/11/04 05:20:11;;;;;;;528.80;156.10;;;;;;;;;;5016334;28;20128;-54
2023/11/04 05:22:36;;;;;;;408.23;150.25;;;;;;;;;;5016353;28;20291;-53
2023/11/04 05:25:03;;;;;;;413.70;150.52;;;;;;;;;;5016761;28;20024;-54
2023/11/04 05:27:28;;;;;;;445.88;178.70;;;;;;;;;;5016344;28;20072;-55
2023/11/04 05:29:54;;;;;;;488.42;195.57;;;;;;;;;;5017066;28;20069;-54
2023/11/04 05:32:19;;;;;;;551.97;196.27;;;;;;;;;;5015976;28;20124;-54
2023/11/04 05:34:44;;;;;;;441.52;188.02;;;;;;;;;;5018348;28;20410;-55
2023/11/04 05:37:10;;;;;;;541.10;192.60;;;;;;;;;;5015686;28;20600;-54
2023/11/04 05:39:35;;;;;;;492.70;191.52;;;;;;;;;;5017458;28;20815;-54
2023/11/04 05:42:02;;;;;;;477.25;191.23;;;;;;;;;;5015883;28;20099;-55
2023/11/04 05:44:27;;;;;;;453.60;191.43;;;;;;;;;;5016324;28;20044;-55
2023/11/04 05:46:52;;;;;;;481.30;189.25;;;;;;;;;;5015214;28;20440;-54
2023/11/04 05:49:18;;;;;;;549.60;194.80;;;;;;;;;;5015450;28;20021;-54
2023/11/04 05:51:43;;;;;;;432.97;189.80;;;;;;;;;;5016359;28;20040;-54
2023/11/04 05:54:11;;;;;;;592.30;194.43;;;;;;;;;;5015204;28;20264;-55
2023/11/04 05:56:37;;;;;;;471.30;191.10;;;;;;;;;;5016759;28;20030;-55
2023/11/04 05:59:02;;;;;;;445.85;187.50;;;;;;;;;;5015544;28;20036;-54
2023/11/04 06:01:27;;;;;;;465.30;188.25;;;;;;;;;;5014647;28;20199;-54
2023/11/04 06:03:53;;;;;;;491.58;191.95;;;;;;;;;;5017118;28;20017;-53
2023/11/04 06:06:21;;;;;;;549.22;193.05;;;;;;;;;;5012628;28;20056;-54
2023/11/04 06:08:47;;;;;;;425.85;187.30;;;;;;;;;;5016699;28;20269;-54
2023/11/04 06:11:12;;;;;;;512.67;192.63;;;;;;;;;;5013754;28;20041;-54
2023/11/04 06:13:38;;;;;;;509.38;190.77;;;;;;;;;;5016384;28;20287;-54
2023/11/04 06:16:03;;;;;;;508.50;191.35;;;;;;;;;;5015432;28;20041;-55
2023/11/04 06:18:28;;;;;;;476.85;188.43;;;;;;;;;;5014280;28;20119;-54
2023/11/04 06:20:54;;;;;;;648.35;225.65;;;;;;;;;;5015496;28;20137;-55
2023/11/04 06:23:19;;;;;;;517.70;190.27;;;;;;;;;;5016278;28;20078;-55
2023/11/04 06:25:44;;;;;;;461.92;185.23;;;;;;;;;;5015586;28;20037;-55
2023/11/04 06:28:10;;;;;;;539.40;192.90;;;;;;;;;;5012888;28;20288;-55
2023/11/04 06:30:35;;;;;;;435.90;183.68;;;;;;;;;;5014761;28;20033;-55
2023/11/04 06:33:01;;;;;;;501.73;186.15;;;;;;;;;;5014101;28;20029;-54
2023/11/04 06:35:28;;;;;;;488.52;184.95;;;;;;;;;;5012281;28;21255;-54
2023/11/04 06:37:53;;;;;;;445.33;181.13;;;;;;;;;;5016160;28;20021;-55
2023/11/04 06:40:19;;;;;;;561.35;201.38;;;;;;;;;;5014271;28;20033;-54
2023/11/04 06:42:44;;;;;;;463.05;185.30;;;;;;;;;;5008342;28;20672;-54
2023/11/04 06:45:10;;;;;;;515.38;183.77;;;;;;;;;;5013033;28;20087;-54
2023/11/04 06:47:36;;;;;;;449.73;181.77;;;;;;;;;;5015706;28;20009;-55
2023/11/04 06:50:03;;;;;;;449.20;185.60;;;;;;;;;;5016467;28;20026;-54
2023/11/04 06:52:29;;;;;;;496.08;191.90;;;;;;;;;;5013510;28;20042;-53
2023/11/04 06:54:54;;;;;;;485.13;186.50;;;;;;;;;;5015416;28;20021;-54
2023/11/04 06:57:20;;;;;;;466.30;186.45;;;;;;;;;;5014906;28;20025;-54
2023/11/04 06:59:45;;;;;;;457.50;184.63;;;;;;;;;;5015770;28;20048;-55
2023/11/04 07:02:10;;;;;;;536.50;188.52;;;;;;;;;;5013227;28;20031;-54
2023/11/04 07:04:36;;;;;;;471.02;189.88;;;;;;;;;;5015152;28;20100;-55
2023/11/04 07:07:01;;;;;;;494.50;184.52;;;;;;;;;;5014241;28;20025;-56
2023/11/04 07:09:27;;;;;;;509.80;185.68;;;;;;;;;;5013939;28;20072;-55
2023/11/04 07:11:53;;;;;;;467.02;183.55;;;;;;;;;;5014615;28;20465;-56
2023/11/04 07:14:19;;;;;;;526.57;185.00;;;;;;;;;;5013905;28;20575;-55
2023/11/04 07:16:45;;;;;;;493.95;187.88;;;;;;;;;;5015153;28;20815;-55
2023/11/04 07:19:10;;;;;;;512.17;185.65;;;;;;;;;;5012956;28;20071;-55
2023/11/04 07:21:37;;;;;;;467.63;184.38;;;;;;;;;;5015787;28;20397;-55
2023/11/04 07:24:02;;;;;;;457.33;183.25;;;;;;;;;;5015800;28;20021;-54
2023/11/04 07:26:29;;;;;;;635.30;210.05;;;;;;;;;;5013815;28;20037;-54
2023/11/04 07:28:55;;;;;;;486.33;183.80;;;;;;;;;;5014706;28;20025;-54
2023/11/04 07:31:20;;;;;;;483.90;184.90;;;;;;;;;;5015845;28;20391;-54
2023/11/04 07:33:45;;;;;;;489.45;185.43;;;;;;;;;;5015225;28;20060;-54
2023/11/04 07:36:12;;;;;;;504.77;188.33;;;;;;;;;;5013340;28;20040;-54
2023/11/04 07:38:37;;;;;;;455.17;180.65;;;;;;;;;;5019088;28;20291;-55
2023/11/04 07:41:03;;;;;;;510.98;188.68;;;;;;;;;;5017947;28;20033;-55
2023/11/04 07:43:32;;;;;;;583.53;190.40;;;;;;;;;;5016688;28;20555;-54
2023/11/04 07:45:57;;;;;;;476.77;181.90;;;;;;;;;;5017139;28;20025;-54
2023/11/04 07:48:22;;;;;;;500.42;182.93;;;;;;;;;;5019250;28;20567;-55
2023/11/04 07:50:48;;;;;;;434.92;180.15;;;;;;;;;;5017773;28;20037;-54
2023/11/04 07:53:15;;;;;;;538.70;185.02;;;;;;;;;;5016431;28;20080;-54
2023/11/04 07:55:40;;;;;;;711.28;279.85;;;;;;;;;;5017826;28;20046;-54
2023/11/04 07:58:05;;;;;;;429.42;180.45;;;;;;;;;;5017957;28;20115;-54
2023/11/04 08:00:31;;;;;;;477.60;184.02;;;;;;;;;;5015980;28;20080;-55
2023/11/04 08:02:57;;;;;;;456.00;181.50;;;;;;;;;;5016680;28;20391;-54
2023/11/04 08:05:22;;;;;;;714.15;261.63;;;;;;;;;;5013694;28;20263;-54
2023/11/04 08:07:48;;;;;;;525.40;184.88;;;;;;;;;;5012148;28;20016;-55
2023/11/04 08:10:13;;;;;;;545.25;184.10;;;;;;;;;;5016223;28;20064;-54
2023/11/04 08:12:38;;;;;;;439.60;181.10;;;;;;;;;;5020176;28;20060;-53
2023/11/04 08:15:05;;;;;;;480.35;185.13;;;;;;;;;;5017329;28;20032;-54
2023/11/04 08:17:30;;;;;;;1010.83;351.67;;;;;;;;;;5016586;28;20105;-55
2023/11/04 08:19:55;;;;;;;450.40;179.50;;;;;;;;;;5019017;28;20033;-55
2023/11/04 08:22:20;;;;;;;572.72;184.50;;;;;;;;;;5017548;28;20233;-55
2023/11/04 08:24:46;;;;;;;531.08;209.68;;;;;;;;;;5017545;28;20029;-58
2023/11/04 08:27:11;;;;;;;497.90;180.13;;;;;;;;;;5016251;28;20025;-56
2023/11/04 08:29:36;;;;;;;486.13;179.38;;;;;;;;;;5017448;28;20013;-55
2023/11/04 08:32:02;;;;;;;530.70;178.30;;;;;;;;;;5015873;28;20034;-57
2023/11/04 08:34:27;;;;;;;495.35;176.75;;;;;;;;;;5018854;28;20147;-56
2023/11/04 08:36:52;;;;;;;447.42;173.98;;;;;;;;;;5016546;28;20030;-55
2023/11/04 08:39:18;;;;;;;545.60;206.88;;;;;;;;;;5011939;28;20240;-57
2023/11/04 08:41:44;;;;;;;467.48;173.45;;;;;;;;;;5018342;28;20477;-55
2023/11/04 08:44:09;;;;;;;512.35;179.52;;;;;;;;;;5018265;28;20025;-55
2023/11/04 08:46:35;;;;;;;498.10;176.57;;;;;;;;;;5014615;28;20040;-55
2023/11/04 08:49:00;;;;;;;499.92;178.65;;;;;;;;;;5015127;28;20461;-56
2023/11/04 08:51:26;;;;;;;786.17;249.35;;;;;;;;;;5015135;28;20038;-56
2023/11/04 08:53:51;;;;;;;459.80;187.82;;;;;;;;;;5018154;28;20085;-55
2023/11/04 08:56:16;;;;;;;676.85;256.05;;;;;;;;;;5014401;28;20249;-56
2023/11/04 08:58:45;;;;;;;482.98;175.93;;;;;;;;;;5017692;28;20036;-56
2023/11/04 09:01:12;;;;;;;558.55;205.23;;;;;;;;;;5015499;28;20078;-55
2023/11/04 09:03:38;;;;;;;476.70;176.50;;;;;;;;;;5016267;28;20013;-56
2023/11/04 09:06:04;;;;;;;690.63;253.27;;;;;;;;;;5016019;28;20037;-56
2023/11/04 09:08:29;;;;;;;496.98;177.57;;;;;;;;;;5014783;28;20860;-57
2023/11/04 09:10:55;;;;;;;475.15;176.23;;;;;;;;;;5016449;28;20263;-56
2023/11/04 09:13:22;;;;;;;601.63;180.57;;;;;;;;;;5015535;28;20481;-55
2023/11/04 09:15:48;;;;;;;508.17;176.13;;;;;;;;;;5012755;28;20471;-56
2023/11/04 09:18:14;;;;;;;490.77;175.60;;;;;;;;;;5016468;28;20553;-56
2023/11/04 09:20:39;;;;;;;504.52;177.38;;;;;;;;;;5001119;28;20037;-55
2023/11/04 09:23:04;;;;;;;518.78;178.13;;;;;;;;;;5017761;28;20274;-56
2023/11/04 09:25:30;;;;;;;489.60;176.63;;;;;;;;;;5013483;28;20029;-56
2023/11/04 09:27:55;;;;;;;475.40;176.57;;;;;;;;;;5017350;28;20019;-56
2023/11/04 09:30:20;;;;;;;548.28;177.48;;;;;;;;;;5015384;28;20036;-55
2023/11/04 09:32:46;;;;;;;442.13;172.45;;;;;;;;;;5017228;28;20451;-56
2023/11/04 09:35:14;;;;;;;488.40;175.10;;;;;;;;;;5015362;28;20168;-58
2023/11/04 09:37:40;;;;;;;503.48;178.10;;;;;;;;;;5014816;28;20249;-55
2023/11/04 09:40:06;;;;;;;523.60;175.50;;;;;;;;;;5012618;28;20072;-56
2023/11/04 09:42:31;;;;;;;768.05;263.98;;;;;;;;;;5017296;28;20048;-57
2023/11/04 09:44:57;;;;;;;684.08;259.88;;;;;;;;;;5016115;28;20024;-55
2023/11/04 09:47:23;;;;;;;699.28;221.45;;;;;;;;;;5014521;28;20069;-56
2023/11/04 09:49:48;;;;;;;538.72;236.13;;;;;;;;;;5017326;28;20159;-56
2023/11/04 09:52:15;;;;;;;465.50;171.75;;;;;;;;;;5016492;28;20266;-55
2023/11/04 09:54:45;;;;;;;480.02;171.07;;;;;;;;;;5015610;28;20496;-56
2023/11/04 09:57:11;;;;;;;537.25;175.35;;;;;;;;;;5014917;28;20063;-56
2023/11/04 09:59:36;;;;;;;463.67;172.63;;;;;;;;;;5014764;28;20397;-55
2023/11/04 10:02:01;;;;;;;528.15;168.88;;;;;;;;;;5015065;28;20037;-57
2023/11/04 10:04:27;;;;;;;558.05;175.05;;;;;;;;;;5016060;28;20045;-55
2023/11/04 10:06:52;;;;;;;410.33;165.55;;;;;;;;;;5013629;28;20389;-57
2023/11/04 10:09:17;;;;;;;434.77;171.55;;;;;;;;;;5014114;28;20021;-56
2023/11/04 10:11:43;;;;;;;490.77;171.88;;;;;;;;;;5014849;28;20041;-56
2023/11/04 10:14:09;;;;;;;545.78;174.43;;;;;;;;;;5015274;28;20602;-54
2023/11/04 10:16:34;;;;;;;570.58;177.70;;;;;;;;;;5014616;28;20073;-56
2023/11/04 10:19:00;;;;;;;493.98;172.05;;;;;;;;;;5015257;28;20509;-55
2023/11/04 10:21:25;;;;;;;622.28;239.38;;;;;;;;;;5013772;28;20099;-55
2023/11/04 10:23:50;;;;;;;415.05;167.32;;;;;;;;;;5016562;28;20013;-56
2023/11/04 10:26:16;;;;;;;530.88;175.48;;;;;;;;;;5014236;28;20472;-55
2023/11/04 10:28:42;;;;;;;510.65;172.40;;;;;;;;;;5014719;28;20026;-56
2023/11/04 10:31:07;;;;;;;504.67;175.60;;;;;;;;;;5016408;28;20049;-56
2023/11/04 10:33:34;;;;;;;575.83;221.65;;;;;;;;;;5013765;28;20032;-56
2023/11/04 10:36:02;;;;;;;545.95;174.50;;;;;;;;;;5014018;28;20041;-55
2023/11/04 10:38:27;;;;;;;557.88;175.93;;;;;;;;;;5009602;28;20497;-57
2023/11/04 10:40:53;;;;;;;457.58;167.45;;;;;;;;;;5014597;28;20753;-57
2023/11/04 10:43:22;;;;;;;483.15;170.15;;;;;;;;;;5015046;28;20025;-56
2023/11/04 10:46:00;;;;;;;463.88;169.63;;;;;;;;;;5007557;28;20092;-57
2023/11/04 10:48:36;;;;;;;598.22;191.82;;;;;;;;;;5014434;28;20017;-56
2023/11/04 10:51:10;;;;;;;532.03;170.65;;;;;;;;;;5013886;28;20041;-56
2023/11/04 10:53:39;;;;;;;550.83;173.13;;;;;;;;;;5014264;28;20044;-56
2023/11/04 10:56:15;;;;;;;1030.82;343.40;;;;;;;;;;5003683;28;20048;-56
2023/11/04 10:58:45;;;;;;;518.40;176.07;;;;;;;;;;5014929;28;20036;-57
2023/11/04 11:01:12;;;;;;;479.20;168.90;;;;;;;;;;5013050;28;20033;-57
2023/11/04 11:03:37;;;;;;;563.75;173.13;;;;;;;;;;5013391;28;20026;-56
2023/11/04 11:06:04;;;;;;;525.95;171.05;;;;;;;;;;5009960;28;20401;-56
2023/11/04 11:08:29;;;;;;;532.95;169.95;;;;;;;;;;5012981;28;20107;-55
2023/11/04 11:11:09;;;;;;;460.77;170.57;;;;;;;;;;5015630;28;20496;-56
2023/11/04 11:13:36;;;;;;;513.97;195.50;;;;;;;;;;5018135;28;20033;-56
2023/11/04 11:16:02;;;;;;;483.50;168.70;;;;;;;;;;5016530;28;20065;-56
2023/11/04 11:18:27;;;;;;;1146.43;499.35;;;;;;;;;;5017665;28;20330;-56
2023/11/04 11:20:53;;;;;;;462.02;166.82;;;;;;;;;;5017301;28;20034;-55
2023/11/04 11:23:25;;;;;;;460.08;166.68;;;;;;;;;;5019128;28;20018;-56
2023/11/04 11:25:51;;;;;;;473.23;168.02;;;;;;;;;;5015992;28;20056;-57
2023/11/04 11:28:20;;;;;;;511.35;177.27;;;;;;;;;;5017318;28;20125;-57
2023/11/04 11:30:52;;;;;;;575.70;192.55;;;;;;;;;;5017765;28;20033;-57
2023/11/04 11:33:24;;;;;;;483.13;164.95;;;;;;;;;;5017941;28;20040;-58
2023/11/04 11:35:59;;;;;;;469.00;165.48;;;;;;;;;;5016083;28;20045;-57
2023/11/04 11:38:28;;;;;;;599.45;206.60;;;;;;;;;;5016022;28;20034;-55
2023/11/04 11:40:54;;;;;;;850.08;376.45;;;;;;;;;;5019061;28;20440;-56
2023/11/04 11:43:20;;;;;;;958.00;389.15;;;;;;;;;;5017334;28;20326;-57
2023/11/04 11:45:47;;;;;;;473.83;167.57;;;;;;;;;;5016026;28;20045;-57
2023/11/04 11:48:13;;;;;;;508.50;168.25;;;;;;;;;;5016593;28;20044;-56
2023/11/04 11:50:40;;;;;;;492.80;166.63;;;;;;;;;;5017351;28;20413;-56
2023/11/04 11:53:05;;;;;;;517.90;167.63;;;;;;;;;;5017063;28;20025;-57
2023/11/04 11:55:30;;;;;;;1159.28;404.55;;;;;;;;;;5016384;28;20036;-57
2023/11/04 11:57:56;;;;;;;471.30;164.23;;;;;;;;;;5015821;28;20029;-58
2023/11/04 12:00:23;;;;;;;536.08;176.82;;;;;;;;;;5016146;28;20450;-56
2023/11/04 12:02:48;;;;;;;614.83;223.98;;;;;;;;;;5015909;28;20071;-58
2023/11/04 12:05:14;;;;;;;482.67;164.05;;;;;;;;;;5018073;28;20018;-57
2023/11/04 12:07:39;;;;;;;622.97;216.60;;;;;;;;;;5016312;28;20025;-57
2023/11/04 12:10:06;;;;;;;660.13;220.95;;;;;;;;;;5016238;28;20064;-57
2023/11/04 12:12:32;;;;;;;774.67;301.75;;;;;;;;;;5017902;28;20095;-57
2023/11/04 12:15:00;;;;;;;442.00;163.55;;;;;;;;;;5016972;28;20108;-56
2023/11/04 12:17:26;;;;;;;549.65;178.38;;;;;;;;;;5012617;28;20079;-57
2023/11/04 12:19:51;;;;;;;541.25;170.13;;;;;;;;;;5018935;28;20057;-55
2023/11/04 12:22:17;;;;;;;741.83;294.00;;;;;;;;;;5015531;28;20504;-57
2023/11/04 12:24:42;;;;;;;450.63;165.60;;;;;;;;;;5017829;28;20417;-57
2023/11/04 12:27:08;;;;;;;685.22;262.75;;;;;;;;;;5015545;28;20029;-55
2023/11/04 12:29:35;;;;;;;613.47;213.48;;;;;;;;;;5016998;28;20102;-55
2023/11/04 12:32:02;;;;;;;1095.57;385.58;;;;;;;;;;5014538;28;20042;-55
2023/11/04 12:34:27;;;;;;;615.25;194.20;;;;;;;;;;5014723;28;20056;-55
2023/11/04 12:36:53;;;;;;;490.45;165.82;;;;;;;;;;5016694;28;20412;-56
2023/11/04 12:39:18;;;;;;;438.55;163.55;;;;;;;;;;5016463;28;20387;-56
2023/11/04 12:41:43;;;;;;;487.08;165.90;;;;;;;;;;5013561;28;20366;-56
2023/11/04 12:44:11;;;;;;;570.88;169.38;;;;;;;;;;5016105;28;20321;-55
2023/11/04 12:46:36;;;;;;;569.45;169.80;;;;;;;;;;5015599;28;20185;-55
2023/11/04 12:49:03;;;;;;;1158.85;505.65;;;;;;;;;;5016495;28;20429;-54
2023/11/04 12:51:29;;;;;;;541.53;166.90;;;;;;;;;;5014410;28;20322;-55
2023/11/04 12:53:55;;;;;;;505.25;166.25;;;;;;;;;;5016789;28;20032;-55
2023/11/04 12:56:22;;;;;;;510.02;177.52;;;;;;;;;;5015515;28;20041;-56
2023/11/04 12:58:49;;;;;;;756.17;297.08;;;;;;;;;;5014639;28;20025;-54
2023/11/04 13:01:16;;;;;;;533.90;170.82;;;;;;;;;;5014661;28;20125;-55
2023/11/04 13:03:41;;;;;;;569.75;168.98;;;;;;;;;;5016026;28;20040;-54
2023/11/04 13:06:07;;;;;;;478.25;174.32;;;;;;;;;;5014673;28;20033;-54
2023/11/04 13:08:32;;;;;;;647.78;207.10;;;;;;;;;;5014456;28;20040;-55
2023/11/04 13:10:58;;;;;;;484.33;164.98;;;;;;;;;;5013248;28;20110;-55
2023/11/04 13:13:24;;;;;;;445.15;162.27;;;;;;;;;;5016711;28;20021;-57
2023/11/04 13:15:49;;;;;;;499.08;168.00;;;;;;;;;;5014050;28;20044;-54
2023/11/04 13:18:14;;;;;;;540.60;168.43;;;;;;;;;;5014798;28;20052;-54
2023/11/04 13:20:40;;;;;;;506.90;164.75;;;;;;;;;;5016971;28;20041;-54
2023/11/04 13:23:05;;;;;;;459.52;164.90;;;;;;;;;;5016356;28;20026;-57
2023/11/04 13:25:30;;;;;;;539.20;163.65;;;;;;;;;;5015927;28;20044;-56
2023/11/04 13:27:56;;;;;;;463.42;160.52;;;;;;;;;;5016480;28;20013;-55
2023/11/04 13:30:22;;;;;;;564.47;218.35;;;;;;;;;;5015075;28;20026;-59
2023/11/04 13:32:48;;;;;;;858.50;349.75;;;;;;;;;;5015181;28;20276;-55
2023/11/04 13:35:14;;;;;;;560.30;173.90;;;;;;;;;;5011810;28;20371;-53
2023/11/04 13:37:39;;;;;;;515.38;166.98;;;;;;;;;;5013994;28;20021;-55
2023/11/04 13:40:05;;;;;;;534.72;163.40;;;;;;;;;;5014794;28;20033;-55
2023/11/04 13:42:31;;;;;;;580.08;170.88;;;;;;;;;;5014541;28;20485;-57
2023/11/04 13:44:56;;;;;;;466.92;162.02;;;;;;;;;;5015522;28;20025;-55